createdAt,value
2019-01-27T00:01:56.921Z,88.37
2019-01-27T00:04:27.962Z,88.95
2019-01-27T00:06:59.240Z,89.20
2019-01-27T00:09:29.986Z,89.35
2019-01-27T00:12:01.315Z,89.44
2019-01-27T00:14:32.543Z,89.36
2019-01-27T00:17:03.467Z,89.22
2019-01-27T00:19:34.514Z,89.15
2019-01-27T00:22:05.959Z,89.47
2019-01-27T00:24:36.704Z,89.22
2019-01-27T00:27:07.683Z,89.00
2019-01-27T00:29:38.697Z,89.26
2019-01-27T00:32:09.477Z,89.32
2019-01-27T00:34:40.440Z,89.75
2019-01-27T00:37:11.337Z,89.88
2019-01-27T00:39:42.316Z,89.19
2019-01-27T00:42:13.357Z,89.65
2019-01-27T00:44:44.104Z,89.56
2019-01-27T00:47:14.859Z,88.95
2019-01-27T00:49:45.601Z,89.07
2019-01-27T00:52:16.429Z,88.71
2019-01-27T00:54:47.177Z,89.26
2019-01-27T00:57:18.231Z,89.10
2019-01-27T00:59:48.969Z,89.41
2019-01-27T01:02:20.033Z,89.02
2019-01-27T01:04:50.916Z,88.78
2019-01-27T01:07:22.031Z,88.68
2019-01-27T01:09:53.075Z,88.52
2019-01-27T01:12:23.897Z,88.02
2019-01-27T01:14:54.945Z,88.33
2019-01-27T01:17:25.923Z,88.36
2019-01-27T01:19:56.661Z,88.09
2019-01-27T01:22:27.988Z,88.34
2019-01-27T01:24:59.128Z,88.93
2019-01-27T01:27:30.110Z,88.62
2019-01-27T01:30:01.314Z,88.40
2019-01-27T01:32:33.435Z,88.43
2019-01-27T01:35:05.096Z,88.34
2019-01-27T01:37:36.773Z,87.99
2019-01-27T01:40:09.801Z,87.94
2019-01-27T01:42:40.782Z,87.96
2019-01-27T01:45:20.136Z,88.18
2019-01-27T01:47:51.220Z,87.88
2019-01-27T01:50:22.392Z,87.64
2019-01-27T01:52:53.316Z,87.63
2019-01-27T01:55:24.542Z,87.23
2019-01-27T01:57:55.428Z,87.24
2019-01-27T02:00:26.846Z,87.01
2019-01-27T02:02:57.708Z,86.57
2019-01-27T02:05:28.527Z,87.27
2019-01-27T02:07:59.669Z,87.04
2019-01-27T02:10:30.581Z,86.41
2019-01-27T02:13:02.347Z,86.12
2019-01-27T02:15:59.180Z,87.03
2019-01-27T02:18:30.341Z,86.52
2019-01-27T02:21:01.491Z,86.41
2019-01-27T02:23:32.905Z,85.91
2019-01-27T02:26:04.556Z,86.53
2019-01-27T02:28:35.544Z,86.09
2019-01-27T02:31:06.534Z,86.01
2019-01-27T02:33:37.522Z,86.15
2019-01-27T02:36:08.533Z,86.22
2019-01-27T02:38:39.853Z,86.33
2019-01-27T02:41:10.934Z,85.72
2019-01-27T02:43:41.747Z,85.91
2019-01-27T02:46:12.768Z,85.58
2019-01-27T02:48:43.569Z,86.10
2019-01-27T02:51:15.008Z,85.66
2019-01-27T02:53:46.279Z,85.71
2019-01-27T02:56:17.127Z,85.94
2019-01-27T02:58:48.264Z,85.28
2019-01-27T03:01:19.280Z,85.52
2019-01-27T03:03:50.223Z,85.27
2019-01-27T03:06:27.874Z,85.10
2019-01-27T03:09:16.270Z,84.77
2019-01-27T03:11:50.784Z,85.29
2019-01-27T03:14:22.256Z,84.94
2019-01-27T03:16:54.285Z,84.62
2019-01-27T03:19:25.429Z,84.64
2019-01-27T03:21:57.168Z,85.67
2019-01-27T03:24:28.150Z,86.04
2019-01-27T03:26:59.320Z,85.48
2019-01-27T03:29:30.428Z,85.30
2019-01-27T03:32:02.220Z,84.92
2019-01-27T03:34:33.540Z,85.07
2019-01-27T03:37:05.755Z,84.64
2019-01-27T03:39:36.757Z,85.37
2019-01-27T03:42:07.948Z,84.99
2019-01-27T03:44:39.020Z,84.49
2019-01-27T03:47:10.031Z,84.67
2019-01-27T03:49:41.035Z,84.38
2019-01-27T03:52:12.030Z,84.72
2019-01-27T03:54:43.152Z,84.08
2019-01-27T03:57:14.147Z,84.85
2019-01-27T03:59:45.390Z,84.15
2019-01-27T04:02:16.167Z,84.18
2019-01-27T04:04:47.325Z,84.74
2019-01-27T04:07:18.689Z,85.04
2019-01-27T04:09:49.688Z,86.35
2019-01-27T04:12:20.857Z,87.42
2019-01-27T04:14:51.851Z,88.09
2019-01-27T04:17:22.707Z,88.78
2019-01-27T04:19:53.547Z,89.40
2019-01-27T04:22:24.405Z,89.56
2019-01-27T04:24:55.241Z,89.88
2019-01-27T04:27:26.381Z,90.37
2019-01-27T04:29:57.413Z,90.00
2019-01-27T04:32:28.746Z,90.24
2019-01-27T04:34:59.510Z,89.89
2019-01-27T04:37:30.754Z,89.86
2019-01-27T04:40:01.765Z,90.07
2019-01-27T04:42:32.535Z,89.81
2019-01-27T04:45:03.684Z,90.04
2019-01-27T04:47:34.700Z,89.91
2019-01-27T04:50:07.550Z,89.49
2019-01-27T04:52:38.635Z,89.32
2019-01-27T04:55:11.276Z,89.20
2019-01-27T04:57:42.369Z,88.64
2019-01-27T05:00:15.881Z,89.13
2019-01-27T05:03:08.617Z,89.42
2019-01-27T05:05:39.682Z,90.18
2019-01-27T05:08:10.547Z,90.59
2019-01-27T05:10:41.635Z,91.02
2019-01-27T05:13:12.432Z,90.29
2019-01-27T05:15:43.428Z,91.20
2019-01-27T05:18:14.453Z,90.76
2019-01-27T05:20:45.286Z,90.35
2019-01-27T05:23:16.054Z,90.31
2019-01-27T05:25:46.827Z,91.21
2019-01-27T05:28:17.605Z,90.89
2019-01-27T05:30:48.819Z,90.42
2019-01-27T05:33:19.826Z,90.80
2019-01-27T05:35:50.585Z,90.63
2019-01-27T05:38:21.586Z,90.19
2019-01-27T05:40:52.596Z,90.60
2019-01-27T05:43:23.368Z,90.53
2019-01-27T05:45:54.127Z,90.09
2019-01-27T05:48:24.910Z,89.93
2019-01-27T05:50:55.679Z,90.35
2019-01-27T05:53:26.484Z,90.78
2019-01-27T05:55:57.743Z,90.31
2019-01-27T05:58:28.636Z,90.70
2019-01-27T06:00:59.488Z,90.60
2019-01-27T06:03:30.332Z,90.54
2019-01-27T06:06:01.364Z,90.57
2019-01-27T06:08:32.335Z,91.03
2019-01-27T06:11:03.075Z,91.00
2019-01-27T06:13:33.908Z,91.27
2019-01-27T06:16:05.961Z,91.07
2019-01-27T06:18:36.878Z,91.05
2019-01-27T06:21:08.033Z,90.99
2019-01-27T06:23:38.890Z,90.79
2019-01-27T06:26:09.768Z,91.71
2019-01-27T06:28:40.790Z,91.42
2019-01-27T06:31:12.135Z,91.48
2019-01-27T06:33:48.098Z,91.63
2019-01-27T06:36:19.185Z,91.48
2019-01-27T06:38:50.287Z,91.59
2019-01-27T06:41:21.046Z,91.95
2019-01-27T06:43:51.907Z,91.69
2019-01-27T06:46:22.664Z,91.48
2019-01-27T06:48:53.448Z,91.49
2019-01-27T06:51:24.207Z,91.85
2019-01-27T06:53:55.165Z,91.40
2019-01-27T06:56:26.064Z,91.10
2019-01-27T06:59:03.181Z,91.38
2019-01-27T07:01:44.768Z,91.17
2019-01-27T07:04:31.921Z,91.38
2019-01-27T07:07:10.292Z,91.25
2019-01-27T07:10:09.652Z,91.26
2019-01-27T07:12:57.011Z,91.32
2019-01-27T07:15:45.973Z,91.23
2019-01-27T07:18:29.244Z,90.84
2019-01-27T07:21:06.602Z,91.03
2019-01-27T07:23:55.059Z,91.18
2019-01-27T07:26:47.591Z,90.34
2019-01-27T07:29:37.684Z,90.39
2019-01-27T07:32:19.490Z,90.41
2019-01-27T07:34:59.796Z,90.42
2019-01-27T07:37:35.092Z,90.18
2019-01-27T07:40:26.713Z,89.50
2019-01-27T07:43:07.063Z,89.66
2019-01-27T07:45:59.875Z,89.24
2019-01-27T07:48:50.101Z,89.63
2019-01-27T07:51:46.453Z,89.58
2019-01-27T07:54:28.456Z,89.50
2019-01-27T07:57:21.058Z,89.34
2019-01-27T08:00:17.551Z,88.77
2019-01-27T08:03:13.523Z,89.22
2019-01-27T08:05:59.437Z,89.09
2019-01-27T08:08:39.598Z,90.16
2019-01-27T08:11:29.464Z,89.74
2019-01-27T08:14:18.319Z,89.08
2019-01-27T08:17:26.648Z,89.11
2019-01-27T08:20:25.703Z,88.73
2019-01-27T08:23:15.778Z,88.53
2019-01-27T08:25:57.258Z,88.29
2019-01-27T08:28:43.543Z,87.39
2019-01-27T08:31:33.586Z,87.64
2019-01-27T08:34:14.507Z,87.17
2019-01-27T08:36:54.046Z,86.58
2019-01-27T08:39:43.250Z,86.67
2019-01-27T08:42:29.271Z,86.21
2019-01-27T08:45:21.997Z,85.87
2019-01-27T08:47:52.911Z,86.55
2019-01-27T08:50:23.951Z,85.62
2019-01-27T08:52:55.032Z,85.66
2019-01-27T08:55:25.900Z,86.12
2019-01-27T08:57:56.665Z,85.51
2019-01-27T09:00:41.046Z,85.62
2019-01-27T09:03:43.079Z,84.95
2019-01-27T09:06:31.128Z,85.41
2019-01-27T09:09:27.100Z,86.44
2019-01-27T09:12:29.080Z,85.64
2019-01-27T09:15:16.419Z,85.16
2019-01-27T09:18:04.869Z,84.79
2019-01-27T09:20:55.034Z,84.73
2019-01-27T09:23:41.177Z,84.77
2019-01-27T09:26:20.070Z,84.03
2019-01-27T09:29:15.901Z,84.84
2019-01-27T09:32:04.208Z,84.71
2019-01-27T09:34:46.535Z,84.78
2019-01-27T09:37:35.291Z,84.04
2019-01-27T09:40:30.418Z,83.63
2019-01-27T09:43:24.151Z,83.59
2019-01-27T09:46:11.119Z,82.98
2019-01-27T09:48:50.187Z,83.24
2019-01-27T09:51:30.106Z,81.78
2019-01-27T09:54:22.953Z,81.83
2019-01-27T09:57:12.159Z,81.74
2019-01-27T09:59:51.567Z,82.04
2019-01-27T10:02:44.327Z,82.08
2019-01-27T10:05:21.992Z,81.54
2019-01-27T10:08:15.523Z,81.11
2019-01-27T10:10:58.575Z,81.69
2019-01-27T10:13:47.152Z,81.48
2019-01-27T10:16:25.371Z,82.10
2019-01-27T10:19:12.203Z,81.63
2019-01-27T10:22:04.244Z,81.26
2019-01-27T10:25:00.340Z,81.58
2019-01-27T10:28:05.540Z,81.73
2019-01-27T10:31:07.363Z,81.19
2019-01-27T10:33:49.232Z,81.70
2019-01-27T10:36:38.904Z,81.07
2019-01-27T10:39:35.232Z,81.23
2019-01-27T10:42:25.158Z,81.39
2019-01-27T10:45:11.865Z,80.53
2019-01-27T10:48:00.534Z,80.77
2019-01-27T10:50:43.219Z,81.42
2019-01-27T10:53:34.948Z,80.75
2019-01-27T10:56:20.720Z,81.35
2019-01-27T10:59:05.620Z,81.72
2019-01-27T11:01:54.450Z,81.49
2019-01-27T11:04:43.114Z,82.52
2019-01-27T11:07:41.947Z,82.54
2019-01-27T11:10:22.167Z,83.42
2019-01-27T11:13:15.347Z,82.98
2019-01-27T11:15:55.632Z,83.24
2019-01-27T11:18:36.781Z,83.67
2019-01-27T11:21:28.185Z,83.22
2019-01-27T11:24:12.063Z,83.44
2019-01-27T11:26:50.244Z,84.33
2019-01-27T11:29:31.264Z,84.42
2019-01-27T11:32:24.511Z,85.12
2019-01-27T11:35:09.929Z,86.72
2019-01-27T11:37:57.362Z,87.30
2019-01-27T11:40:37.753Z,87.40
2019-01-27T11:43:18.394Z,88.15
2019-01-27T11:46:06.851Z,87.15
2019-01-27T11:48:43.463Z,87.26
2019-01-27T11:51:24.450Z,88.05
2019-01-27T11:53:55.700Z,87.84
2019-01-27T11:56:26.870Z,87.76
2019-01-27T11:58:57.703Z,87.14
2019-01-27T12:01:28.589Z,87.48
2019-01-27T12:03:59.912Z,86.98
2019-01-27T12:06:31.095Z,86.74
2019-01-27T12:09:02.190Z,86.50
2019-01-27T12:11:35.142Z,85.93
2019-01-27T12:14:06.771Z,85.57
2019-01-27T12:16:37.928Z,85.28
2019-01-27T12:19:09.305Z,84.77
2019-01-27T12:21:40.141Z,84.72
2019-01-27T12:24:12.023Z,85.40
2019-01-27T12:26:42.853Z,84.11
2019-01-27T12:29:13.927Z,83.87
2019-01-27T12:31:44.994Z,82.77
2019-01-27T12:34:16.019Z,81.98
2019-01-27T12:36:46.861Z,82.08
2019-01-27T12:39:17.706Z,81.51
2019-01-27T12:41:48.768Z,81.35
2019-01-27T12:44:19.642Z,79.82
2019-01-27T12:46:50.891Z,79.90
2019-01-27T12:49:22.014Z,79.44
2019-01-27T12:51:53.099Z,80.12
2019-01-27T12:54:24.149Z,80.16
2019-01-27T12:56:55.249Z,78.61
2019-01-27T12:59:26.336Z,79.04
2019-01-27T13:01:57.212Z,78.81
2019-01-27T13:04:28.312Z,77.88
2019-01-27T13:06:59.386Z,78.09
2019-01-27T13:09:30.549Z,76.76
2019-01-27T13:12:01.400Z,76.08
2019-01-27T13:14:32.491Z,76.76
2019-01-27T13:17:07.408Z,76.15
2019-01-27T13:19:36.001Z,76.48
2019-01-27T13:22:06.851Z,76.73
2019-01-27T13:24:38.197Z,76.30
2019-01-27T13:27:09.069Z,76.70
2019-01-27T13:29:39.938Z,76.69
2019-01-27T13:32:11.026Z,76.48
2019-01-27T13:34:41.812Z,76.54
2019-01-27T13:37:12.659Z,76.42
2019-01-27T13:39:43.962Z,76.32
2019-01-27T13:42:15.034Z,76.40
2019-01-27T13:44:46.060Z,76.08
2019-01-27T13:47:16.900Z,76.58
2019-01-27T13:49:47.912Z,76.53
2019-01-27T13:52:18.996Z,76.22
2019-01-27T13:54:50.362Z,75.82
2019-01-27T13:57:21.286Z,76.47
2019-01-27T13:59:52.076Z,76.69
2019-01-27T14:02:22.861Z,76.76
2019-01-27T14:04:53.706Z,76.92
2019-01-27T14:07:24.513Z,77.35
2019-01-27T14:09:55.692Z,78.07
2019-01-27T14:12:26.456Z,78.94
2019-01-27T14:14:57.307Z,79.26
2019-01-27T14:17:28.140Z,79.63
2019-01-27T14:19:59.163Z,80.12
2019-01-27T14:22:30.270Z,81.47
2019-01-27T14:25:01.130Z,81.67
2019-01-27T14:27:32.036Z,81.89
2019-01-27T14:30:03.074Z,82.30
2019-01-27T14:32:34.106Z,82.24
2019-01-27T14:35:05.707Z,82.11
2019-01-27T14:37:36.477Z,82.02
2019-01-27T14:40:09.480Z,83.27
2019-01-27T14:42:40.321Z,81.55
2019-01-27T14:45:14.225Z,80.81
2019-01-27T14:47:45.323Z,81.02
2019-01-27T14:50:18.938Z,81.42
2019-01-27T14:52:50.165Z,81.12
2019-01-27T14:55:21.277Z,81.32
2019-01-27T14:57:52.317Z,80.99
2019-01-27T15:00:25.730Z,81.47
2019-01-27T15:02:58.190Z,80.66
2019-01-27T15:05:29.116Z,80.85
2019-01-27T15:08:02.682Z,80.75
2019-01-27T15:10:35.701Z,80.28
2019-01-27T15:13:06.893Z,79.96
2019-01-27T15:15:38.054Z,79.94
2019-01-27T15:18:09.149Z,79.98
2019-01-27T15:20:43.651Z,80.15
2019-01-27T15:23:14.475Z,79.77
2019-01-27T15:25:45.411Z,79.78
2019-01-27T15:28:16.172Z,79.91
2019-01-27T15:30:46.947Z,79.32
2019-01-27T15:33:18.013Z,79.20
2019-01-27T15:35:49.046Z,79.62
2019-01-27T15:38:20.283Z,79.53
2019-01-27T15:40:51.196Z,79.37
2019-01-27T15:43:22.464Z,78.81
2019-01-27T15:45:53.472Z,79.28
2019-01-27T15:48:24.317Z,79.08
2019-01-27T15:50:55.257Z,78.81
2019-01-27T15:53:26.381Z,79.30
2019-01-27T15:55:57.466Z,79.31
2019-01-27T15:58:28.542Z,79.62
2019-01-27T16:00:59.566Z,80.83
2019-01-27T16:03:30.633Z,80.04
2019-01-27T16:06:01.604Z,80.84
2019-01-27T16:08:32.448Z,80.96
2019-01-27T16:11:03.630Z,80.88
2019-01-27T16:13:34.528Z,81.53
2019-01-27T16:16:05.684Z,81.11
2019-01-27T16:18:38.365Z,81.30
2019-01-27T16:21:09.541Z,81.60
2019-01-27T16:24:08.411Z,81.92
2019-01-27T16:26:39.435Z,81.53
2019-01-27T16:29:10.279Z,82.66
2019-01-27T16:31:45.266Z,83.90
2019-01-27T16:34:33.913Z,83.59
2019-01-27T16:37:04.987Z,83.27
2019-01-27T16:39:36.145Z,84.00
2019-01-27T16:42:07.197Z,84.37
2019-01-27T16:44:38.235Z,84.72
2019-01-27T16:47:09.586Z,84.43
2019-01-27T16:49:40.439Z,85.33
2019-01-27T16:52:12.400Z,85.06
2019-01-27T16:54:43.483Z,85.27
2019-01-27T16:57:14.563Z,84.91
2019-01-27T16:59:45.665Z,85.11
2019-01-27T17:02:17.537Z,84.77
2019-01-27T17:04:48.419Z,85.16
2019-01-27T17:07:19.429Z,84.88
2019-01-27T17:09:50.458Z,84.85
2019-01-27T17:12:21.548Z,85.06
2019-01-27T17:14:52.556Z,85.15
2019-01-27T17:17:23.567Z,85.19
2019-01-27T17:19:54.335Z,85.66
2019-01-27T17:22:25.115Z,85.20
2019-01-27T17:24:56.248Z,85.21
2019-01-27T17:27:27.343Z,85.35
2019-01-27T17:29:59.300Z,85.11
2019-01-27T17:32:30.087Z,85.69
2019-01-27T17:35:00.935Z,86.37
2019-01-27T17:37:31.910Z,86.75
2019-01-27T17:40:02.758Z,86.38
2019-01-27T17:42:33.680Z,85.79
2019-01-27T17:45:06.301Z,86.52
2019-01-27T17:47:37.500Z,86.17
2019-01-27T17:50:10.588Z,86.26
2019-01-27T17:52:42.085Z,86.52
2019-01-27T17:55:34.275Z,86.41
2019-01-27T17:58:24.418Z,86.13
2019-01-27T18:01:11.531Z,85.73
2019-01-27T18:03:47.950Z,87.01
2019-01-27T18:06:32.662Z,88.33
2019-01-27T18:09:13.418Z,89.86
2019-01-27T18:11:49.357Z,90.72
2019-01-27T18:14:28.052Z,92.54
2019-01-27T18:16:59.069Z,93.82
2019-01-27T18:19:29.937Z,94.79
2019-01-27T18:22:00.868Z,95.33
2019-01-27T18:24:32.016Z,96.08
2019-01-27T18:27:02.892Z,97.01
2019-01-27T18:29:33.699Z,97.61
2019-01-27T18:32:04.680Z,98.96
2019-01-27T18:34:35.614Z,99.32
2019-01-27T18:37:06.651Z,99.43
2019-01-27T18:39:37.476Z,100.00
2019-01-27T18:42:08.564Z,99.97
2019-01-27T18:44:39.427Z,99.62
2019-01-27T18:47:10.524Z,99.37
2019-01-27T18:49:41.520Z,100.00
2019-01-27T18:52:12.583Z,100.00
2019-01-27T18:54:54.981Z,100.00
2019-01-27T18:57:35.207Z,100.00
2019-01-27T19:00:16.481Z,100.00
2019-01-27T19:03:05.518Z,100.00
2019-01-27T19:05:54.101Z,99.82
2019-01-27T19:08:44.493Z,99.65
2019-01-27T19:11:37.566Z,100.00
2019-01-27T19:14:21.116Z,100.00
2019-01-27T19:17:16.878Z,100.00
2019-01-27T19:19:56.201Z,100.00
2019-01-27T19:22:57.923Z,100.00
2019-01-27T19:25:56.774Z,99.88
2019-01-27T19:28:46.912Z,99.16
2019-01-27T19:31:25.307Z,98.71
2019-01-27T19:34:21.274Z,98.06
2019-01-27T19:37:04.086Z,98.46
2019-01-27T19:39:54.029Z,98.63
2019-01-27T19:42:32.424Z,97.98
2019-01-27T19:45:08.815Z,98.60
2019-01-27T19:47:47.511Z,98.67
2019-01-27T19:50:56.816Z,98.62
2019-01-27T19:53:56.062Z,97.75
2019-01-27T19:56:45.151Z,97.57
2019-01-27T19:59:31.099Z,97.54
2019-01-27T20:02:28.063Z,98.19
2019-01-27T20:05:07.487Z,98.39
2019-01-27T20:07:55.455Z,97.75
2019-01-27T20:10:50.059Z,98.14
2019-01-27T20:13:29.788Z,97.46
2019-01-27T20:16:20.521Z,95.92
2019-01-27T20:19:09.050Z,95.92
2019-01-27T20:21:53.276Z,95.96
2019-01-27T20:24:49.317Z,95.84
2019-01-27T20:27:30.763Z,95.45
2019-01-27T20:30:21.520Z,94.24
2019-01-27T20:33:03.256Z,94.49
2019-01-27T20:36:02.546Z,93.99
2019-01-27T20:38:46.761Z,94.45
2019-01-27T20:41:36.787Z,94.12
2019-01-27T20:44:09.886Z,94.21
2019-01-27T20:46:54.575Z,94.00
2019-01-27T20:50:02.371Z,94.35
2019-01-27T20:52:52.303Z,93.55
2019-01-27T20:55:40.608Z,93.53
2019-01-27T20:58:36.485Z,93.41
2019-01-27T21:01:35.345Z,92.50
2019-01-27T21:04:13.865Z,93.40
2019-01-27T21:07:06.216Z,94.77
2019-01-27T21:09:57.571Z,95.63
2019-01-27T21:12:46.009Z,95.71
2019-01-27T21:15:30.035Z,97.03
2019-01-27T21:18:18.252Z,96.83
2019-01-27T21:20:53.536Z,97.44
2019-01-27T21:23:22.041Z,97.76
2019-01-27T21:25:53.063Z,97.67
2019-01-27T21:28:24.061Z,98.97
2019-01-27T21:30:55.142Z,99.44
2019-01-27T21:33:25.909Z,98.87
2019-01-27T21:35:57.037Z,98.67
2019-01-27T21:38:28.064Z,99.49
2019-01-27T21:40:58.930Z,99.47
2019-01-27T21:43:30.056Z,99.03
2019-01-27T21:46:00.857Z,99.09
2019-01-27T21:48:32.923Z,98.90
2019-01-27T21:51:04.019Z,99.24
2019-01-27T21:53:35.026Z,99.21
2019-01-27T21:56:05.888Z,98.25
2019-01-27T21:58:37.396Z,98.34
2019-01-27T22:01:08.609Z,97.98
2019-01-27T22:03:39.523Z,97.44
2019-01-27T22:06:10.786Z,97.89
2019-01-27T22:08:41.548Z,97.97
2019-01-27T22:11:12.664Z,97.90
2019-01-27T22:13:43.976Z,97.65
2019-01-27T22:16:14.986Z,97.50
2019-01-27T22:18:46.195Z,96.89
2019-01-27T22:21:16.978Z,96.76
2019-01-27T22:23:47.755Z,96.35
2019-01-27T22:26:18.680Z,96.66
2019-01-27T22:28:49.922Z,95.94
2019-01-27T22:31:21.190Z,94.16
2019-01-27T22:33:51.952Z,95.24
2019-01-27T22:36:23.057Z,95.24
2019-01-27T22:38:54.137Z,94.47
2019-01-27T22:41:25.236Z,94.79
2019-01-27T22:43:56.074Z,92.75
2019-01-27T22:46:26.923Z,93.43
2019-01-27T22:48:57.691Z,93.71
2019-01-27T22:51:28.549Z,93.67
2019-01-27T22:53:59.550Z,94.64
2019-01-27T22:56:30.401Z,94.04
2019-01-27T22:59:01.242Z,93.52
2019-01-27T23:01:32.096Z,94.61
2019-01-27T23:04:03.131Z,94.41
2019-01-27T23:06:34.981Z,93.73
2019-01-27T23:09:11.614Z,92.01
2019-01-27T23:11:42.533Z,92.47
2019-01-27T23:14:13.610Z,93.26
2019-01-27T23:16:44.383Z,92.85
2019-01-27T23:19:15.485Z,92.69
2019-01-27T23:24:21.985Z,91.98
2019-01-27T23:26:53.176Z,91.63
2019-01-27T23:29:23.955Z,92.67
2019-01-27T23:31:54.743Z,92.55
2019-01-27T23:34:25.886Z,92.39
2019-01-27T23:36:56.790Z,92.16
2019-01-27T23:39:27.703Z,91.46
2019-01-27T23:41:58.710Z,90.74
2019-01-27T23:44:29.544Z,90.71
2019-01-27T23:47:00.667Z,90.78
2019-01-27T23:49:31.664Z,90.19
2019-01-27T23:52:02.522Z,90.35
2019-01-27T23:54:33.365Z,90.17
2019-01-27T23:57:04.603Z,90.05
2019-01-27T23:59:35.457Z,89.63
